Urb Luquillo Mar, Puerto Rico
Current Conditions -  °F | °C
As of 12:53 PM on Friday 28 Nov 2014 (Local Time) from TJNR Reporting Station
Few Clouds Few Clouds  
Wind Chill: 83°   Ceiling: Unl
Heat Index: 88°   Visibility: 10mi
Dew Point: 71°   Wind: 10mph
Humidity: 67%   Direction: 120°ESE
Pressure: 29.96"   Gusts: NA
Location:  18.3744°N, 65.7168°W
Report Text: TJNR 281653Z AUTO 12009KT 10SM FEW028 28/22 A2996 RMK AO2 SLP146 T02830217 $
Loading
Personal Weather Stations






























Interactive Weather Map New forecast layout! Learn more

10-Day Weather Forecast

Advertisements
Track Severe Weather on mobile